createdAt,value
2023-01-01T00:01:25.278Z,12.00
2023-01-01T00:03:54.026Z,13.50
2023-01-01T00:06:21.070Z,12.68
2023-01-01T00:08:48.530Z,13.38
2023-01-01T00:11:15.021Z,12.68
2023-01-01T00:13:44.309Z,12.82
2023-01-01T00:16:13.392Z,10.52
2023-01-01T00:18:40.575Z,11.00
2023-01-01T00:21:13.283Z,8.98
2023-01-01T00:23:39.924Z,10.48
2023-01-01T00:26:15.300Z,12.07
2023-01-01T00:28:42.244Z,12.73
2023-01-01T00:31:10.328Z,14.32
2023-01-01T00:33:36.889Z,9.68
2023-01-01T00:36:08.276Z,9.63
2023-01-01T00:38:35.113Z,6.88
2023-01-01T00:41:02.073Z,10.43
2023-01-01T00:43:28.641Z,10.63
2023-01-01T00:45:55.303Z,10.15
2023-01-01T00:48:22.446Z,8.18
2023-01-01T00:50:50.041Z,6.45
2023-01-01T00:53:16.831Z,8.68
2023-01-01T00:55:44.043Z,8.10
2023-01-01T00:58:11.184Z,8.80
2023-01-01T01:00:38.530Z,9.35
2023-01-01T01:03:05.142Z,8.40
2023-01-01T01:05:33.103Z,10.43
2023-01-01T01:08:00.014Z,11.02
2023-01-01T01:10:26.576Z,12.77
2023-01-01T01:12:53.270Z,8.73
2023-01-01T01:15:19.890Z,9.35
2023-01-01T01:17:46.523Z,9.57
2023-01-01T01:20:13.278Z,12.55
2023-01-01T01:22:40.189Z,7.90
2023-01-01T01:25:07.317Z,7.38
2023-01-01T01:27:33.780Z,8.80
2023-01-01T01:30:00.322Z,8.88
2023-01-01T01:32:27.015Z,7.10
2023-01-01T01:34:53.551Z,9.27
2023-01-01T01:37:20.196Z,9.50
2023-01-01T01:39:51.705Z,9.10
2023-01-01T01:42:20.350Z,10.13
2023-01-01T01:44:49.422Z,8.88
2023-01-01T01:47:21.290Z,8.18
2023-01-01T01:49:49.670Z,9.55
2023-01-01T01:52:16.499Z,9.45
2023-01-01T01:54:43.077Z,9.02
2023-01-01T01:57:12.796Z,7.20
2023-01-01T01:59:43.996Z,7.28
2023-01-01T02:02:19.733Z,9.80
2023-01-01T02:04:47.177Z,9.82
2023-01-01T02:07:14.915Z,10.13
2023-01-01T02:09:42.210Z,8.18
2023-01-01T02:12:08.792Z,10.32
2023-01-01T02:14:35.335Z,8.00
2023-01-01T02:17:10.601Z,9.25
2023-01-01T02:20:09.589Z,9.35
2023-01-01T02:22:35.994Z,10.20
2023-01-01T02:25:11.469Z,7.93
2023-01-01T02:27:59.035Z,9.55
2023-01-01T02:30:29.219Z,8.25
2023-01-01T02:33:09.092Z,7.78
2023-01-01T02:35:42.453Z,8.27
2023-01-01T02:38:23.945Z,8.25
2023-01-01T02:40:55.941Z,7.50
2023-01-01T02:43:24.968Z,9.68
2023-01-01T02:45:53.941Z,7.55
2023-01-01T02:48:42.046Z,7.63
2023-01-01T02:51:14.457Z,7.38
2023-01-01T02:54:19.599Z,7.03
2023-01-01T02:56:54.449Z,7.13
2023-01-01T02:59:59.571Z,7.45
2023-01-01T03:02:43.873Z,8.13
2023-01-01T03:05:23.713Z,10.95
2023-01-01T03:08:15.811Z,7.35
2023-01-01T03:10:45.323Z,7.03
2023-01-01T03:13:27.649Z,8.02
2023-01-01T03:16:21.794Z,6.63
2023-01-01T03:19:10.504Z,8.77
2023-01-01T03:22:05.014Z,7.22
2023-01-01T03:24:39.369Z,7.22
2023-01-01T03:27:14.530Z,8.52
2023-01-01T03:29:43.445Z,7.38
2023-01-01T03:32:16.481Z,9.15
2023-01-01T03:34:49.526Z,7.00
2023-01-01T03:37:22.401Z,6.72
2023-01-01T03:39:52.453Z,6.72
2023-01-01T03:42:36.318Z,7.07
2023-01-01T03:45:10.829Z,7.60
2023-01-01T03:47:37.582Z,6.68
2023-01-01T03:50:05.926Z,7.70
2023-01-01T03:52:51.256Z,7.88
2023-01-01T03:55:47.864Z,7.43
2023-01-01T03:58:35.769Z,7.78
2023-01-01T04:01:32.284Z,8.35
2023-01-01T04:04:01.350Z,8.50
2023-01-01T04:06:28.247Z,8.52
2023-01-01T04:08:58.998Z,11.70
2023-01-01T04:11:47.407Z,7.80
2023-01-01T04:14:30.405Z,8.18
2023-01-01T04:16:57.723Z,6.60
2023-01-01T04:19:25.249Z,7.25
2023-01-01T04:21:52.041Z,6.50
2023-01-01T04:24:18.656Z,8.70
2023-01-01T04:26:45.180Z,7.22
2023-01-01T04:29:12.769Z,8.88
2023-01-01T04:31:39.337Z,7.15
2023-01-01T04:34:05.910Z,8.85
2023-01-01T04:36:33.138Z,7.13
2023-01-01T04:38:59.756Z,7.68
2023-01-01T04:41:26.246Z,7.43
2023-01-01T04:43:52.774Z,8.88
2023-01-01T04:46:20.481Z,9.02
2023-01-01T04:48:47.149Z,7.70
2023-01-01T04:51:15.324Z,7.10
2023-01-01T04:53:42.129Z,8.95
2023-01-01T04:56:11.840Z,7.68
2023-01-01T04:58:40.035Z,8.13
2023-01-01T05:01:07.626Z,8.07
2023-01-01T05:03:34.289Z,10.95
2023-01-01T05:06:08.595Z,7.28
2023-01-01T05:08:37.492Z,6.85
2023-01-01T05:11:06.255Z,9.85
2023-01-01T05:13:35.835Z,7.20
2023-01-01T05:16:04.092Z,7.03
2023-01-01T05:18:30.857Z,9.68
2023-01-01T05:21:05.548Z,7.63
2023-01-01T05:23:32.628Z,8.43
2023-01-01T05:25:59.159Z,8.77
2023-01-01T05:28:25.939Z,8.88
2023-01-01T05:30:53.643Z,7.75
2023-01-01T05:33:20.377Z,7.40
2023-01-01T05:35:53.405Z,9.45
2023-01-01T05:38:19.956Z,7.35
2023-01-01T05:40:46.510Z,7.63
2023-01-01T05:43:12.992Z,8.70
2023-01-01T05:45:39.602Z,8.50
2023-01-01T05:48:07.196Z,7.85
2023-01-01T05:50:33.684Z,9.52
2023-01-01T05:53:01.234Z,7.20
2023-01-01T05:55:28.539Z,7.88
2023-01-01T05:57:55.097Z,8.18
2023-01-01T06:00:21.588Z,7.70
2023-01-01T06:02:49.927Z,8.02
2023-01-01T06:05:16.771Z,9.10
2023-01-01T06:07:48.123Z,6.90
2023-01-01T06:10:15.234Z,7.47
2023-01-01T06:12:41.840Z,7.35
2023-01-01T06:15:08.774Z,8.75
2023-01-01T06:17:35.311Z,8.00
2023-01-01T06:20:01.852Z,8.70
2023-01-01T06:22:28.369Z,10.05
2023-01-01T06:24:55.013Z,6.80
2023-01-01T06:27:21.542Z,5.85
2023-01-01T06:29:48.009Z,6.30
2023-01-01T06:32:14.516Z,7.47
2023-01-01T06:34:40.971Z,6.50
2023-01-01T06:37:07.449Z,7.63
2023-01-01T06:39:33.970Z,6.60
2023-01-01T06:42:00.462Z,6.50
2023-01-01T06:44:26.926Z,7.72
2023-01-01T06:46:53.397Z,5.70
2023-01-01T06:49:19.902Z,6.13
2023-01-01T06:51:46.538Z,5.68
2023-01-01T06:54:13.108Z,5.30
2023-01-01T06:56:39.935Z,5.05
2023-01-01T06:59:06.523Z,5.20
2023-01-01T07:01:35.963Z,5.05
2023-01-01T07:04:05.303Z,7.45
2023-01-01T07:06:32.762Z,5.32
2023-01-01T07:08:59.375Z,5.40
2023-01-01T07:11:26.809Z,6.50
2023-01-01T07:13:54.063Z,7.53
2023-01-01T07:16:21.677Z,5.88
2023-01-01T07:18:50.387Z,5.43
2023-01-01T07:21:32.659Z,7.28
2023-01-01T07:24:01.441Z,5.97
2023-01-01T07:26:29.654Z,6.00
2023-01-01T07:29:02.749Z,6.78
2023-01-01T07:31:32.771Z,5.25
2023-01-01T07:33:59.342Z,5.55
2023-01-01T07:36:25.887Z,7.00
2023-01-01T07:38:52.349Z,5.70
2023-01-01T07:41:18.813Z,4.72
2023-01-01T07:43:45.351Z,6.93
2023-01-01T07:46:13.974Z,5.75
2023-01-01T07:48:40.615Z,6.97
2023-01-01T07:51:07.173Z,5.07
2023-01-01T07:53:33.919Z,7.93
2023-01-01T07:56:00.517Z,5.53
2023-01-01T07:58:27.119Z,5.65
2023-01-01T08:00:53.768Z,4.65
2023-01-01T08:03:20.387Z,4.38
2023-01-01T08:05:48.463Z,6.07
2023-01-01T08:08:15.119Z,7.65
2023-01-01T08:10:41.659Z,7.35
2023-01-01T08:13:09.363Z,6.13
2023-01-01T08:15:36.159Z,5.80
2023-01-01T08:18:05.330Z,6.45
2023-01-01T08:20:33.088Z,8.00
2023-01-01T08:23:06.946Z,6.07
2023-01-01T08:25:34.359Z,6.20
2023-01-01T08:28:00.917Z,5.28
2023-01-01T08:30:27.615Z,7.93
2023-01-01T08:32:54.086Z,5.60
2023-01-01T08:35:20.564Z,6.18
2023-01-01T08:37:47.095Z,6.43
2023-01-01T08:40:14.031Z,5.43
2023-01-01T08:42:41.471Z,9.68
2023-01-01T08:45:08.633Z,6.88
2023-01-01T08:47:35.316Z,4.68
2023-01-01T08:50:02.151Z,6.25
2023-01-01T08:52:28.733Z,5.32
2023-01-01T08:54:55.314Z,8.23
2023-01-01T08:57:21.861Z,6.35
2023-01-01T08:59:48.402Z,5.05
2023-01-01T09:02:15.127Z,6.45
2023-01-01T09:04:41.777Z,7.68
2023-01-01T09:07:08.451Z,5.82
2023-01-01T09:09:35.051Z,4.35
2023-01-01T09:12:08.283Z,6.90
2023-01-01T09:14:35.502Z,6.65
2023-01-01T09:17:02.115Z,6.32
2023-01-01T09:19:28.877Z,6.60
2023-01-01T09:21:55.722Z,5.53
2023-01-01T09:24:22.577Z,5.97
2023-01-01T09:26:49.070Z,8.90
2023-01-01T09:29:20.626Z,6.95
2023-01-01T09:31:50.195Z,7.47
2023-01-01T09:34:18.082Z,6.80
2023-01-01T09:36:45.573Z,6.40
2023-01-01T09:39:15.294Z,8.15
2023-01-01T09:41:41.757Z,5.90
2023-01-01T09:44:35.432Z,7.50
2023-01-01T09:47:05.650Z,8.13
2023-01-01T09:49:41.287Z,7.15
2023-01-01T09:52:13.559Z,7.53
2023-01-01T09:54:45.073Z,7.82
2023-01-01T09:57:19.898Z,8.02
2023-01-01T09:59:46.832Z,9.07
2023-01-01T10:02:35.190Z,8.57
2023-01-01T10:05:24.773Z,5.93
2023-01-01T10:08:05.262Z,6.70
2023-01-01T10:10:41.349Z,7.68
2023-01-01T10:13:32.335Z,11.10
2023-01-01T10:16:04.217Z,8.35
2023-01-01T10:18:35.885Z,6.55
2023-01-01T10:21:23.549Z,7.10
2023-01-01T10:24:02.189Z,8.13
2023-01-01T10:26:31.275Z,9.40
2023-01-01T10:29:09.274Z,8.57
2023-01-01T10:31:40.066Z,9.50
2023-01-01T10:34:25.958Z,7.55
2023-01-01T10:36:56.895Z,9.00
2023-01-01T10:39:24.801Z,7.77
2023-01-01T10:41:51.568Z,9.85
2023-01-01T10:44:32.453Z,9.25
2023-01-01T10:47:04.924Z,8.43
2023-01-01T10:49:31.399Z,10.18
2023-01-01T10:51:59.264Z,10.88
2023-01-01T10:54:38.090Z,9.95
2023-01-01T10:57:16.792Z,11.18
2023-01-01T10:59:49.785Z,13.55
2023-01-01T11:02:25.865Z,10.68
2023-01-01T11:05:12.930Z,9.18
2023-01-01T11:07:43.793Z,9.82
2023-01-01T11:10:31.520Z,10.95
2023-01-01T11:13:06.374Z,8.48
2023-01-01T11:15:41.642Z,11.85
2023-01-01T11:18:14.817Z,9.98
2023-01-01T11:20:43.578Z,8.77
2023-01-01T11:23:40.915Z,10.32
2023-01-01T11:26:26.915Z,10.65
2023-01-01T11:29:17.502Z,10.57
2023-01-01T11:31:47.891Z,10.05
2023-01-01T11:34:26.466Z,10.27
2023-01-01T11:37:05.735Z,10.35
2023-01-01T11:39:36.000Z,9.65
2023-01-01T11:42:04.175Z,9.32
2023-01-01T11:44:38.159Z,9.23
2023-01-01T11:47:07.112Z,9.95
2023-01-01T11:49:34.547Z,8.38
2023-01-01T11:52:21.089Z,12.23
2023-01-01T11:54:48.171Z,10.13
2023-01-01T11:57:21.988Z,9.88
2023-01-01T12:00:02.015Z,10.68
2023-01-01T12:02:40.140Z,8.43
2023-01-01T12:05:35.036Z,12.25
2023-01-01T12:08:07.585Z,7.03
2023-01-01T12:10:56.925Z,10.77
2023-01-01T12:13:29.841Z,10.38
2023-01-01T12:16:12.344Z,11.35
2023-01-01T12:19:02.461Z,7.38
2023-01-01T12:21:29.544Z,7.78
2023-01-01T12:23:56.104Z,9.18
2023-01-01T12:26:38.469Z,11.32
2023-01-01T12:29:46.849Z,9.82
2023-01-01T12:32:40.838Z,8.40
2023-01-01T12:35:17.995Z,9.05
2023-01-01T12:38:15.589Z,12.88
2023-01-01T12:40:51.593Z,10.48
2023-01-01T12:43:40.768Z,9.52
2023-01-01T12:46:43.015Z,9.18
2023-01-01T12:49:29.634Z,10.13
2023-01-01T12:52:02.668Z,8.43
2023-01-01T12:54:53.299Z,12.50
2023-01-01T12:57:31.904Z,8.55
2023-01-01T13:00:02.756Z,7.70
2023-01-01T13:02:33.311Z,10.43
2023-01-01T13:05:13.497Z,8.80
2023-01-01T13:07:46.742Z,8.98
2023-01-01T13:10:30.360Z,9.82
2023-01-01T13:12:57.143Z,8.88
2023-01-01T13:15:39.031Z,9.07
2023-01-01T13:20:39.035Z,8.15
2023-01-01T13:23:05.632Z,10.80
2023-01-01T13:25:32.132Z,11.20
2023-01-01T13:28:03.465Z,10.00
2023-01-01T13:30:39.542Z,7.45
2023-01-01T13:33:29.504Z,11.68
2023-01-01T13:36:11.897Z,11.32
2023-01-01T13:38:55.636Z,12.77
2023-01-01T13:41:25.073Z,10.25
2023-01-01T13:43:53.085Z,9.73
2023-01-01T13:46:35.695Z,12.10
2023-01-01T13:49:17.110Z,10.55
2023-01-01T13:52:22.671Z,9.27
2023-01-01T13:55:19.918Z,8.32
2023-01-01T13:58:15.235Z,12.93
2023-01-01T14:00:59.970Z,8.40
2023-01-01T14:03:28.451Z,14.65
2023-01-01T14:05:59.749Z,6.82
2023-01-01T14:08:35.564Z,12.48
2023-01-01T14:11:03.877Z,10.07
2023-01-01T14:13:39.046Z,13.38
2023-01-01T14:16:13.486Z,10.70
2023-01-01T14:18:53.397Z,9.63
2023-01-01T14:21:26.725Z,10.93
2023-01-01T14:23:57.497Z,14.70
2023-01-01T14:26:28.999Z,10.60
2023-01-01T14:28:57.125Z,9.95
2023-01-01T14:31:28.815Z,12.05
2023-01-01T14:36:30.196Z,10.07
2023-01-01T14:39:00.626Z,10.30
2023-01-01T14:41:33.009Z,11.80
2023-01-01T14:44:15.478Z,9.43
2023-01-01T14:46:46.206Z,9.27
2023-01-01T14:49:22.030Z,11.30
2023-01-01T14:51:58.081Z,10.52
2023-01-01T14:54:36.846Z,10.85
2023-01-01T14:57:08.974Z,14.35
2023-01-01T14:59:37.815Z,11.18
2023-01-01T15:02:21.508Z,11.20
2023-01-01T15:04:48.807Z,12.70
2023-01-01T15:07:27.556Z,10.30
2023-01-01T15:09:56.913Z,10.25
2023-01-01T15:12:24.083Z,12.77
2023-01-01T15:14:52.559Z,10.65
2023-01-01T15:17:21.947Z,7.78
2023-01-01T15:20:07.046Z,10.00
2023-01-01T15:22:35.754Z,10.55
2023-01-01T15:25:03.111Z,10.98
2023-01-01T15:27:32.046Z,8.00
2023-01-01T15:29:59.260Z,10.95
2023-01-01T15:32:28.962Z,7.45
2023-01-01T15:34:58.360Z,8.65
2023-01-01T15:37:27.623Z,12.15
2023-01-01T15:39:57.958Z,9.30
2023-01-01T15:42:33.198Z,9.05
2023-01-01T15:45:29.102Z,9.52
2023-01-01T15:48:16.788Z,11.85
2023-01-01T15:51:01.403Z,8.73
2023-01-01T15:53:40.295Z,12.13
2023-01-01T15:56:12.467Z,13.30
2023-01-01T15:58:53.945Z,10.40
2023-01-01T16:01:24.267Z,12.57
2023-01-01T16:03:54.951Z,11.98
2023-01-01T16:06:22.133Z,11.20
2023-01-01T16:08:48.667Z,12.07
2023-01-01T16:11:15.403Z,9.73
2023-01-01T16:13:42.129Z,13.50
2023-01-01T16:16:29.785Z,13.38
2023-01-01T16:18:57.589Z,12.00
2023-01-01T16:21:27.340Z,14.80
2023-01-01T16:23:54.865Z,14.65
2023-01-01T16:26:22.342Z,12.52
2023-01-01T16:28:49.169Z,11.95
2023-01-01T16:31:19.473Z,15.65
2023-01-01T16:33:52.253Z,12.48
2023-01-01T16:36:18.746Z,10.63
2023-01-01T16:38:45.289Z,11.73
2023-01-01T16:41:16.488Z,10.23
2023-01-01T16:43:44.381Z,11.38
2023-01-01T16:46:13.468Z,10.98
2023-01-01T16:48:40.918Z,10.27
2023-01-01T16:51:18.060Z,12.00
2023-01-01T16:53:44.943Z,12.40
2023-01-01T16:56:12.620Z,13.95
2023-01-01T16:59:02.329Z,15.93
2023-01-01T17:01:26.809Z,11.88
2023-01-01T17:03:53.477Z,17.20
2023-01-01T17:06:20.080Z,19.10
2023-01-01T17:08:46.665Z,17.60
2023-01-01T17:11:16.662Z,20.17
2023-01-01T17:13:45.193Z,10.30
2023-01-01T17:16:14.702Z,8.02
2023-01-01T17:21:36.280Z,10.35
2023-01-01T17:24:02.782Z,13.10
2023-01-01T17:26:29.411Z,12.23
2023-01-01T17:29:00.611Z,9.43
2023-01-01T17:31:28.956Z,10.38
2023-01-01T17:33:56.094Z,11.75
2023-01-01T17:36:23.109Z,10.90
2023-01-01T17:38:49.701Z,8.90
2023-01-01T17:41:17.443Z,14.73
2023-01-01T17:43:46.102Z,9.98
2023-01-01T17:46:15.161Z,10.68
2023-01-01T17:48:42.477Z,15.13
2023-01-01T17:51:09.393Z,15.45
2023-01-01T17:53:38.675Z,11.20
2023-01-01T17:56:09.930Z,8.60
2023-01-01T17:58:36.407Z,9.88
2023-01-01T18:01:27.091Z,11.60
2023-01-01T18:03:56.617Z,6.15
2023-01-01T18:06:23.837Z,8.88
2023-01-01T18:09:01.740Z,8.15
2023-01-01T18:11:30.188Z,9.07
2023-01-01T18:14:01.730Z,15.45
2023-01-01T18:16:30.653Z,30.17
2023-01-01T18:19:00.968Z,12.88
2023-01-01T18:21:27.772Z,6.60
2023-01-01T18:23:56.298Z,7.55
2023-01-01T18:26:25.149Z,7.10
2023-01-01T18:28:53.067Z,7.47
2023-01-01T18:31:20.005Z,7.63
2023-01-01T18:33:47.486Z,5.15
2023-01-01T18:36:16.641Z,7.30
2023-01-01T18:39:11.178Z,6.95
2023-01-01T18:41:53.140Z,6.50
2023-01-01T18:46:56.294Z,6.22
2023-01-01T18:49:25.216Z,8.07
2023-01-01T18:51:56.779Z,8.88
2023-01-01T18:54:24.337Z,7.72
2023-01-01T18:57:07.655Z,6.35
2023-01-01T18:59:36.745Z,8.65
2023-01-01T19:02:33.710Z,8.10
2023-01-01T19:05:17.220Z,8.85
2023-01-01T19:07:49.852Z,5.55
2023-01-01T19:10:16.473Z,8.45
2023-01-01T19:12:43.389Z,8.88
2023-01-01T19:15:19.080Z,8.35
2023-01-01T19:17:46.281Z,8.27
2023-01-01T19:20:19.444Z,8.63
2023-01-01T19:22:47.614Z,8.68
2023-01-01T19:25:37.005Z,9.70
2023-01-01T19:28:25.839Z,6.88
2023-01-01T19:30:52.343Z,9.77
2023-01-01T19:33:18.892Z,12.52
2023-01-01T19:35:45.451Z,15.00
2023-01-01T19:38:11.955Z,16.30
2023-01-01T19:40:38.424Z,11.77
2023-01-01T19:43:06.709Z,8.07
2023-01-01T19:45:33.921Z,10.85
2023-01-01T19:48:00.520Z,10.70
2023-01-01T19:50:27.020Z,9.15
2023-01-01T19:52:53.529Z,12.32
2023-01-01T19:55:20.108Z,8.05
2023-01-01T19:57:46.708Z,9.52
2023-01-01T20:00:13.701Z,9.05
2023-01-01T20:02:48.377Z,9.45
2023-01-01T20:05:15.718Z,9.02
2023-01-01T20:07:42.350Z,10.77
2023-01-01T20:10:09.471Z,8.75
2023-01-01T20:12:35.995Z,8.77
2023-01-01T20:15:02.562Z,11.82
2023-01-01T20:17:30.600Z,8.63
2023-01-01T20:19:58.319Z,11.32
2023-01-01T20:22:25.025Z,10.02
2023-01-01T20:24:51.573Z,14.63
2023-01-01T20:27:18.450Z,9.48
2023-01-01T20:29:45.104Z,10.90
2023-01-01T20:32:13.113Z,15.60
2023-01-01T20:34:40.282Z,10.38
2023-01-01T20:37:25.516Z,9.60
2023-01-01T20:39:52.355Z,7.05
2023-01-01T20:42:19.143Z,8.13
2023-01-01T20:44:45.736Z,9.25
2023-01-01T20:47:13.312Z,9.93
2023-01-01T20:49:41.026Z,8.95
2023-01-01T20:52:07.549Z,10.85
2023-01-01T20:54:34.097Z,8.18
2023-01-01T20:57:00.679Z,10.75
2023-01-01T20:59:36.780Z,9.02
2023-01-01T21:02:06.355Z,9.48
2023-01-01T21:04:38.078Z,10.95
2023-01-01T21:07:06.133Z,9.60
2023-01-01T21:09:32.677Z,9.02
2023-01-01T21:12:00.849Z,10.15
2023-01-01T21:14:27.952Z,10.25
2023-01-01T21:16:54.518Z,9.32
2023-01-01T21:19:26.695Z,12.50
2023-01-01T21:21:56.887Z,9.63
2023-01-01T21:24:35.041Z,8.48
2023-01-01T21:27:07.467Z,8.23
2023-01-01T21:29:35.308Z,9.68
2023-01-01T21:32:16.985Z,9.02
2023-01-01T21:34:45.056Z,9.70
2023-01-01T21:37:44.664Z,9.48
2023-01-01T21:40:35.887Z,9.13
2023-01-01T21:43:02.308Z,11.27
2023-01-01T21:45:33.187Z,9.48
2023-01-01T21:48:12.523Z,9.77
2023-01-01T21:50:44.161Z,12.05
2023-01-01T21:53:16.268Z,8.80
2023-01-01T21:55:53.307Z,9.30
2023-01-01T21:59:01.704Z,10.55
2023-01-01T22:01:36.671Z,10.23
2023-01-01T22:04:08.964Z,10.38
2023-01-01T22:06:39.016Z,10.02
2023-01-01T22:09:24.654Z,10.30
2023-01-01T22:11:56.785Z,11.07
2023-01-01T22:14:27.216Z,9.63
2023-01-01T22:16:58.248Z,9.07
2023-01-01T22:19:33.577Z,9.18
2023-01-01T22:22:00.122Z,10.90
2023-01-01T22:24:34.853Z,11.77
2023-01-01T22:27:31.466Z,10.68
2023-01-01T22:30:19.081Z,10.77
2023-01-01T22:32:59.689Z,14.68
2023-01-01T22:35:29.228Z,11.93
2023-01-01T22:37:56.857Z,9.43
2023-01-01T22:40:32.769Z,11.52
2023-01-01T22:43:05.851Z,10.88
2023-01-01T22:45:32.920Z,9.93
2023-01-01T22:48:02.002Z,15.07
2023-01-01T22:50:30.212Z,11.80
2023-01-01T22:52:57.552Z,12.95
2023-01-01T22:55:24.889Z,10.88
2023-01-01T22:57:51.546Z,11.80
2023-01-01T23:00:19.089Z,10.23
2023-01-01T23:02:46.127Z,12.52
2023-01-01T23:05:12.783Z,9.68
2023-01-01T23:07:42.205Z,12.63
2023-01-01T23:10:12.112Z,10.68
2023-01-01T23:12:38.662Z,13.07
2023-01-01T23:15:23.888Z,11.43
2023-01-01T23:17:50.397Z,10.80
2023-01-01T23:20:17.490Z,10.90
2023-01-01T23:22:46.732Z,9.15
2023-01-01T23:25:16.662Z,10.43
2023-01-01T23:27:44.516Z,10.07
2023-01-01T23:30:11.673Z,11.45
2023-01-01T23:32:38.810Z,10.63
2023-01-01T23:35:05.679Z,10.43
2023-01-01T23:37:32.396Z,11.93
2023-01-01T23:39:58.947Z,10.40
2023-01-01T23:42:25.447Z,11.07
2023-01-01T23:44:52.005Z,11.70
2023-01-01T23:47:18.590Z,10.50
2023-01-01T23:49:45.150Z,11.63
2023-01-01T23:52:11.703Z,14.73
2023-01-01T23:54:38.998Z,12.07
2023-01-01T23:57:05.524Z,10.50
2023-01-01T23:59:32.081Z,10.88
